Time;durP1;ratioP1;P1;durP2;ratioP2;P2;SDS_P1;SDS_P2;PMS_P1;PMS_P2;Temp;Humidity;BMP_temperature;BMP_pressure;BME280_temperature;BME280_humidity;BME280_pressure;Samples;Min_cycle;Max_cycle;Signal;HPM_P1;HPM_P2
2022/05/05 00:02:07;;;;;;;;;;;8.70;98.10;;;;;;5078986;27;38828;-59
2022/05/05 00:04:35;;;;;;;;;;;8.80;97.90;;;;;;5078602;27;38165;-59
2022/05/05 00:07:02;;;;;;;;;;;8.80;97.70;;;;;;5079768;27;38183;-59
2022/05/05 00:09:32;;;;;;;;;;;8.80;98.00;;;;;;5076730;27;36032;-59
2022/05/05 00:14:56;;;;;;;;;;;8.70;97.80;;;;;;5032849;28;40731;-59
2022/05/05 00:17:25;;;;;;;;;;;8.80;97.70;;;;;;5066254;27;37397;-59
2022/05/05 00:19:53;;;;;;;;;;;8.90;97.70;;;;;;5080107;27;36131;-59
2022/05/05 00:22:23;;;;;;;;;;;8.90;97.40;;;;;;5078715;27;37382;-59
2022/05/05 00:24:50;;;;;;;;;;;9.00;97.60;;;;;;5076610;27;39135;-59
2022/05/05 00:27:21;;;;;;;;;;;9.00;97.60;;;;;;5078624;27;37079;-59
2022/05/05 00:29:48;;;;;;;;;;;9.00;97.60;;;;;;5076978;27;35151;-59
2022/05/05 00:32:16;;;;;;;;;;;9.00;97.70;;;;;;5078687;27;38510;-59
2022/05/05 00:34:45;;;;;;;;;;;9.00;97.60;;;;;;5078231;27;40379;-59
2022/05/05 00:37:14;;;;;;;;;;;9.00;97.60;;;;;;5078023;27;37152;-59
2022/05/05 00:39:43;;;;;;;;;;;9.00;97.50;;;;;;5078200;27;36680;-59
2022/05/05 00:42:12;;;;;;;;;;;9.10;97.10;;;;;;5077506;27;36558;-59
2022/05/05 00:44:39;;;;;;;;;;;9.10;97.00;;;;;;5079975;27;36783;-59
2022/05/05 00:47:07;;;;;;;;;;;9.10;96.80;;;;;;5077479;27;37328;-59
2022/05/05 00:49:34;;;;;;;;;;;9.10;97.00;;;;;;5079201;27;36487;-58
2022/05/05 00:52:01;;;;;;;;;;;9.10;96.90;;;;;;5077076;27;39237;-58
2022/05/05 00:54:29;;;;;;;;;;;9.10;96.90;;;;;;5077965;27;38090;-59
2022/05/05 00:56:57;;;;;;;;;;;9.10;97.00;;;;;;5078527;27;37371;-59
2022/05/05 00:59:24;;;;;;;;;;;9.00;97.00;;;;;;5078659;27;35237;-59
2022/05/05 01:01:51;;;;;;;;;;;9.00;97.10;;;;;;5077190;27;37676;-59
2022/05/05 01:04:19;;;;;;;;;;;9.00;97.00;;;;;;5077210;27;36540;-59
2022/05/05 01:06:47;;;;;;;;;;;9.00;97.20;;;;;;5077925;27;36202;-59
2022/05/05 01:09:14;;;;;;;;;;;9.00;97.10;;;;;;5078351;27;36948;-59
2022/05/05 01:11:42;;;;;;;;;;;8.90;97.00;;;;;;5078076;27;37702;-58
2022/05/05 01:14:09;;;;;;;;;;;9.00;97.10;;;;;;5077736;27;38760;-59
2022/05/05 01:16:38;;;;;;;;;;;9.00;97.50;;;;;;5077977;27;37470;-59
2022/05/05 01:19:08;;;;;;;;;;;9.10;96.80;;;;;;5076920;27;35999;-59
2022/05/05 01:21:36;;;;;;;;;;;9.10;96.70;;;;;;5077880;27;37652;-58
2022/05/05 01:24:03;;;;;;;;;;;9.10;96.50;;;;;;5077453;27;36747;-58
2022/05/05 01:29:15;;;;;;;;;;;9.10;96.50;;;;;;5077232;27;38851;-59
2022/05/05 01:31:44;;;;;;;;;;;9.10;96.60;;;;;;5077012;27;37647;-59
2022/05/05 01:34:11;;;;;;;;;;;9.10;96.70;;;;;;5077217;27;37380;-59
2022/05/05 01:36:40;;;;;;;;;;;9.10;96.60;;;;;;5076803;27;37905;-59
2022/05/05 01:39:09;;;;;;;;;;;9.10;96.60;;;;;;5077325;27;36455;-54
2022/05/05 01:41:37;;;;;;;;;;;9.10;96.50;;;;;;5071967;27;39974;-59
2022/05/05 01:44:04;;;;;;;;;;;9.20;96.30;;;;;;5076046;27;38498;-59
2022/05/05 01:46:31;;;;;;;;;;;9.20;96.20;;;;;;5076664;27;39161;-59
2022/05/05 01:48:58;;;;;;;;;;;9.20;96.10;;;;;;5077269;27;36267;-59
2022/05/05 01:51:25;;;;;;;;;;;9.20;96.20;;;;;;5077227;27;38176;-59
2022/05/05 01:53:55;;;;;;;;;;;9.20;96.10;;;;;;5078145;27;38033;-59
2022/05/05 01:56:23;;;;;;;;;;;9.20;96.40;;;;;;5077427;27;35951;-59
2022/05/05 01:58:50;;;;;;;;;;;9.10;96.20;;;;;;5078543;27;38222;-59
2022/05/05 02:01:17;;;;;;;;;;;9.10;96.40;;;;;;5077069;27;37153;-58
2022/05/05 02:03:44;;;;;;;;;;;9.00;96.50;;;;;;5076668;27;37370;-59
2022/05/05 02:06:13;;;;;;;;;;;9.00;96.60;;;;;;5075804;27;37451;-58
2022/05/05 02:08:40;;;;;;;;;;;9.00;96.90;;;;;;5077714;27;37406;-59
2022/05/05 02:11:11;;;;;;;;;;;9.00;97.20;;;;;;5076509;27;30903;-59
2022/05/05 02:13:38;;;;;;;;;;;8.90;97.30;;;;;;5077981;27;37503;-59
2022/05/05 02:16:06;;;;;;;;;;;8.90;97.40;;;;;;5075219;27;37169;-59
2022/05/05 02:18:33;;;;;;;;;;;8.80;97.50;;;;;;5077547;27;35276;-58
2022/05/05 02:21:00;;;;;;;;;;;8.80;97.70;;;;;;5075705;27;38049;-59
2022/05/05 02:23:27;;;;;;;;;;;8.70;97.90;;;;;;5077716;27;37948;-59
2022/05/05 02:25:54;;;;;;;;;;;8.80;97.90;;;;;;5075460;27;38240;-59
2022/05/05 02:28:27;;;;;;;;;;;8.80;97.40;;;;;;5077119;27;36799;-59
2022/05/05 02:30:54;;;;;;;;;;;8.90;96.90;;;;;;5076761;27;38450;-59
2022/05/05 02:33:21;;;;;;;;;;;8.90;96.70;;;;;;5076275;27;38617;-59
2022/05/05 02:38:42;;;;;;;;;;;9.00;96.20;;;;;;5075201;27;37549;-58
2022/05/05 02:38:43;;;;;;;;;;;9.00;96.00;;;;;;5076857;27;36830;-58
2022/05/05 02:41:11;;;;;;;;;;;9.00;95.70;;;;;;5072097;27;38613;-55
2022/05/05 02:43:39;;;;;;;;;;;9.00;95.70;;;;;;5072662;27;37628;-53
2022/05/05 02:46:06;;;;;;;;;;;9.00;95.50;;;;;;5076017;27;36666;-55
2022/05/05 02:48:34;;;;;;;;;;;9.00;95.50;;;;;;5075189;27;37746;-55
2022/05/05 02:51:04;;;;;;;;;;;9.00;95.60;;;;;;5075255;27;36574;-55
2022/05/05 02:56:16;;;;;;;;;;;9.00;95.70;;;;;;5076782;27;37368;-55
2022/05/05 02:58:45;;;;;;;;;;;9.00;95.90;;;;;;5078483;27;36651;-55
2022/05/05 03:01:15;;;;;;;;;;;8.90;96.10;;;;;;5077787;27;37778;-55
2022/05/05 03:03:42;;;;;;;;;;;8.80;96.10;;;;;;5078302;27;38026;-55
2022/05/05 03:06:10;;;;;;;;;;;8.80;96.30;;;;;;5079575;27;36499;-54
2022/05/05 03:08:37;;;;;;;;;;;8.90;96.10;;;;;;5078984;27;36380;-55
2022/05/05 03:11:04;;;;;;;;;;;8.90;96.50;;;;;;5076820;27;36410;-55
2022/05/05 03:13:31;;;;;;;;;;;8.80;96.60;;;;;;5078873;27;37818;-55
2022/05/05 03:16:04;;;;;;;;;;;8.80;96.90;;;;;;5077186;27;37817;-55
2022/05/05 03:18:31;;;;;;;;;;;8.80;96.80;;;;;;5078381;27;36468;-55
2022/05/05 03:20:59;;;;;;;;;;;8.80;96.80;;;;;;5079643;27;38421;-55
2022/05/05 03:23:26;;;;;;;;;;;8.80;97.00;;;;;;5078531;27;36780;-55
2022/05/05 03:25:54;;;;;;;;;;;8.70;97.20;;;;;;5077046;27;37419;-55
2022/05/05 03:28:21;;;;;;;;;;;8.80;97.10;;;;;;5077727;27;36241;-55
2022/05/05 03:30:49;;;;;;;;;;;8.80;97.20;;;;;;5076281;27;38028;-55
2022/05/05 03:33:20;;;;;;;;;;;8.80;97.10;;;;;;5076404;27;38520;-55
2022/05/05 03:35:47;;;;;;;;;;;8.80;97.20;;;;;;5073888;27;38243;-55
2022/05/05 03:38:14;;;;;;;;;;;8.80;97.10;;;;;;5077201;27;37702;-55
2022/05/05 03:40:42;;;;;;;;;;;8.80;97.20;;;;;;5074042;27;38466;-55
2022/05/05 03:43:09;;;;;;;;;;;8.80;97.00;;;;;;5076937;27;38310;-55
2022/05/05 03:45:36;;;;;;;;;;;8.90;96.80;;;;;;5076041;27;37091;-55
2022/05/05 03:48:03;;;;;;;;;;;8.90;97.00;;;;;;5076922;27;36258;-55
2022/05/05 03:50:32;;;;;;;;;;;8.90;96.80;;;;;;5076835;27;37642;-55
2022/05/05 03:52:59;;;;;;;;;;;8.90;96.80;;;;;;5077618;27;36565;-55
2022/05/05 03:55:28;;;;;;;;;;;8.90;96.90;;;;;;5074435;27;39190;-55
2022/05/05 03:57:55;;;;;;;;;;;9.10;97.00;;;;;;5076314;27;38198;-55
2022/05/05 04:00:23;;;;;;;;;;;8.90;96.50;;;;;;5077364;27;37893;-55
2022/05/05 04:03:30;;;;;;;;;;;8.90;96.60;;;;;;5078661;27;38003;-54
2022/05/05 04:05:38;;;;;;;;;;;8.80;97.00;;;;;;5075619;27;38342;-54
2022/05/05 04:08:06;;;;;;;;;;;8.90;96.90;;;;;;5077166;27;36092;-55
2022/05/05 04:10:33;;;;;;;;;;;9.00;96.70;;;;;;5074160;27;38764;-54
2022/05/05 04:13:00;;;;;;;;;;;9.00;96.70;;;;;;5076953;27;39371;-55
2022/05/05 04:15:27;;;;;;;;;;;9.00;96.50;;;;;;5075086;27;36269;-55
2022/05/05 04:17:54;;;;;;;;;;;9.00;96.00;;;;;;5076251;27;36347;-55
2022/05/05 04:20:21;;;;;;;;;;;9.10;96.00;;;;;;5075326;27;36589;-55
2022/05/05 04:22:53;;;;;;;;;;;9.10;95.70;;;;;;5077139;27;37673;-55
2022/05/05 04:25:20;;;;;;;;;;;9.10;95.80;;;;;;5075662;27;38109;-55
2022/05/05 04:27:48;;;;;;;;;;;9.10;96.00;;;;;;5075803;27;35037;-55
2022/05/05 04:30:16;;;;;;;;;;;9.10;96.20;;;;;;5075508;27;38797;-54
2022/05/05 04:32:43;;;;;;;;;;;9.10;96.40;;;;;;5076810;27;36322;-55
2022/05/05 04:35:11;;;;;;;;;;;9.00;96.50;;;;;;5075983;27;38143;-55
2022/05/05 04:37:38;;;;;;;;;;;9.10;96.60;;;;;;5074811;27;36748;-55
2022/05/05 04:40:07;;;;;;;;;;;9.10;96.50;;;;;;5075973;27;38522;-54
2022/05/05 04:42:35;;;;;;;;;;;9.00;96.30;;;;;;5074395;27;39318;-55
2022/05/05 04:45:02;;;;;;;;;;;9.00;96.40;;;;;;5075557;27;37099;-55
2022/05/05 04:47:29;;;;;;;;;;;9.10;96.50;;;;;;5074772;27;35238;-55
2022/05/05 04:49:57;;;;;;;;;;;9.10;96.30;;;;;;5075948;27;38021;-55
2022/05/05 04:52:24;;;;;;;;;;;9.20;96.30;;;;;;5074622;27;39009;-55
2022/05/05 04:54:51;;;;;;;;;;;9.20;96.20;;;;;;5074225;27;35919;-55
2022/05/05 04:57:19;;;;;;;;;;;9.20;95.80;;;;;;5077090;27;36789;-55
2022/05/05 04:59:46;;;;;;;;;;;9.20;96.40;;;;;;5076873;27;39259;-54
2022/05/05 05:02:14;;;;;;;;;;;9.20;96.30;;;;;;5075304;27;38546;-55
2022/05/05 05:04:41;;;;;;;;;;;9.20;96.40;;;;;;5077021;27;37379;-55
2022/05/05 05:07:09;;;;;;;;;;;9.20;96.50;;;;;;5075827;27;36275;-55
2022/05/05 05:09:36;;;;;;;;;;;9.30;96.60;;;;;;5074619;27;36821;-55
2022/05/05 05:12:03;;;;;;;;;;;9.30;96.80;;;;;;5072178;27;38723;-55
2022/05/05 05:14:32;;;;;;;;;;;9.30;97.20;;;;;;5074213;27;36974;-55
2022/05/05 05:16:59;;;;;;;;;;;9.20;97.30;;;;;;5075617;27;36273;-55
2022/05/05 05:19:27;;;;;;;;;;;9.30;98.00;;;;;;5075665;27;40112;-55
2022/05/05 05:21:54;;;;;;;;;;;9.30;97.80;;;;;;5075205;27;41740;-55
2022/05/05 05:24:21;;;;;;;;;;;9.30;97.70;;;;;;5075569;27;37026;-55
2022/05/05 05:26:48;;;;;;;;;;;9.30;97.40;;;;;;5075192;27;35806;-55
2022/05/05 05:29:16;;;;;;;;;;;9.40;97.80;;;;;;5076020;27;37663;-55
2022/05/05 05:31:45;;;;;;;;;;;9.40;97.50;;;;;;5076301;27;36575;-55
2022/05/05 05:34:12;;;;;;;;;;;9.40;97.50;;;;;;5075048;27;37295;-55
2022/05/05 05:36:39;;;;;;;;;;;9.50;97.90;;;;;;5075779;27;38132;-55
2022/05/05 05:39:09;;;;;;;;;;;9.40;98.10;;;;;;5076433;27;38149;-55
2022/05/05 05:41:36;;;;;;;;;;;9.50;97.80;;;;;;5074434;27;37932;-56
2022/05/05 05:44:04;;;;;;;;;;;9.50;98.00;;;;;;5075026;27;37124;-55
2022/05/05 05:46:34;;;;;;;;;;;9.50;98.40;;;;;;5074465;27;36261;-55
2022/05/05 05:49:03;;;;;;;;;;;9.50;98.70;;;;;;5075906;27;37573;-56
2022/05/05 05:51:30;;;;;;;;;;;9.50;98.70;;;;;;5076138;27;37356;-55
2022/05/05 05:53:57;;;;;;;;;;;9.50;98.60;;;;;;5075320;27;38695;-55
2022/05/05 05:56:24;;;;;;;;;;;9.60;98.20;;;;;;5072430;27;36123;-56
2022/05/05 05:58:51;;;;;;;;;;;9.60;98.30;;;;;;5075657;27;37395;-55
2022/05/05 06:01:18;;;;;;;;;;;9.60;98.40;;;;;;5074878;27;40499;-55
2022/05/05 06:03:53;;;;;;;;;;;9.70;98.10;;;;;;5077011;27;37104;-55
2022/05/05 06:06:24;;;;;;;;;;;9.70;98.10;;;;;;5075389;27;36168;-55
2022/05/05 06:08:51;;;;;;;;;;;9.80;97.70;;;;;;5075355;27;37502;-55
2022/05/05 06:11:22;;;;;;;;;;;9.80;97.70;;;;;;5074390;27;39809;-55
2022/05/05 06:13:50;;;;;;;;;;;9.90;98.40;;;;;;5076093;27;37379;-55
2022/05/05 06:16:17;;;;;;;;;;;9.90;98.00;;;;;;5074416;27;35088;-55
2022/05/05 06:18:44;;;;;;;;;;;9.90;97.70;;;;;;5073838;27;39129;-55
2022/05/05 06:21:18;;;;;;;;;;;10.00;97.90;;;;;;5074909;27;38529;-55
2022/05/05 06:23:49;;;;;;;;;;;10.00;97.70;;;;;;5075523;27;39607;-55
2022/05/05 06:26:16;;;;;;;;;;;10.10;97.60;;;;;;5071991;27;38058;-55
2022/05/05 06:28:44;;;;;;;;;;;10.20;98.00;;;;;;5071425;27;38538;-55
2022/05/05 06:31:11;;;;;;;;;;;10.30;97.70;;;;;;5079603;27;36644;-59
2022/05/05 06:33:39;;;;;;;;;;;10.30;97.50;;;;;;5079816;27;37915;-59
2022/05/05 06:36:06;;;;;;;;;;;10.40;97.30;;;;;;5079527;27;37195;-59
2022/05/05 06:38:33;;;;;;;;;;;10.30;97.10;;;;;;5081225;27;37261;-59
2022/05/05 06:41:02;;;;;;;;;;;10.50;97.40;;;;;;5079347;27;38166;-59
2022/05/05 06:43:30;;;;;;;;;;;10.50;97.70;;;;;;5080493;27;38023;-59
2022/05/05 06:45:57;;;;;;;;;;;10.60;97.60;;;;;;5080565;27;36517;-59
2022/05/05 06:48:24;;;;;;;;;;;10.60;97.50;;;;;;5079470;27;39001;-59
2022/05/05 06:50:51;;;;;;;;;;;10.70;97.30;;;;;;5078620;27;38544;-59
2022/05/05 06:53:18;;;;;;;;;;;10.70;97.50;;;;;;5075407;27;35935;-59
2022/05/05 06:55:46;;;;;;;;;;;10.80;97.50;;;;;;5074542;27;36846;-58
2022/05/05 06:58:15;;;;;;;;;;;10.80;97.00;;;;;;5077275;27;38220;-59
2022/05/05 07:03:27;;;;;;;;;;;10.90;96.80;;;;;;5080936;27;37951;-59
2022/05/05 07:05:53;;;;;;;;;;;10.90;96.80;;;;;;5078889;27;37921;-59
2022/05/05 07:08:21;;;;;;;;;;;11.00;96.80;;;;;;5078108;27;37818;-59
2022/05/05 07:10:53;;;;;;;;;;;11.10;96.70;;;;;;5077285;27;38031;-57
2022/05/05 07:13:22;;;;;;;;;;;11.10;96.70;;;;;;5076184;27;37932;-59
2022/05/05 07:15:51;;;;;;;;;;;11.10;96.10;;;;;;5080540;27;37487;-59
2022/05/05 07:18:18;;;;;;;;;;;11.20;96.40;;;;;;5076656;27;36567;-59
2022/05/05 07:20:46;;;;;;;;;;;11.30;96.30;;;;;;5077489;27;37904;-55
2022/05/05 07:23:14;;;;;;;;;;;11.30;96.30;;;;;;5077465;27;37043;-55
2022/05/05 07:25:41;;;;;;;;;;;11.40;95.90;;;;;;5077447;27;35941;-55
2022/05/05 07:28:09;;;;;;;;;;;11.40;95.70;;;;;;5077109;27;39714;-55
2022/05/05 07:30:37;;;;;;;;;;;11.50;96.10;;;;;;5073142;27;38132;-55
2022/05/05 07:33:05;;;;;;;;;;;11.50;95.70;;;;;;5077902;27;39003;-56
2022/05/05 07:35:32;;;;;;;;;;;11.60;95.90;;;;;;5076576;27;35218;-55
2022/05/05 07:38:02;;;;;;;;;;;11.70;95.40;;;;;;5076956;27;37690;-56
2022/05/05 07:40:30;;;;;;;;;;;11.70;94.90;;;;;;5075730;27;37689;-55
2022/05/05 07:42:57;;;;;;;;;;;11.80;95.40;;;;;;5079642;27;39778;-55
2022/05/05 07:45:24;;;;;;;;;;;11.90;94.50;;;;;;5080740;27;36207;-55
2022/05/05 07:47:56;;;;;;;;;;;11.90;95.30;;;;;;5081012;27;36707;-55
2022/05/05 07:50:23;;;;;;;;;;;12.00;95.50;;;;;;5080031;27;39050;-55
2022/05/05 07:52:59;;;;;;;;;;;12.10;95.20;;;;;;5080797;27;38223;-55
2022/05/05 07:55:26;;;;;;;;;;;12.20;94.80;;;;;;5080979;27;35224;-55
2022/05/05 07:57:53;;;;;;;;;;;12.30;94.60;;;;;;5080455;27;38105;-56
2022/05/05 08:00:21;;;;;;;;;;;12.40;94.00;;;;;;5081749;27;36682;-55
2022/05/05 08:02:48;;;;;;;;;;;12.40;93.80;;;;;;5080019;27;35905;-55
2022/05/05 08:05:17;;;;;;;;;;;12.40;93.90;;;;;;5080075;27;36705;-55
2022/05/05 08:07:49;;;;;;;;;;;12.60;94.20;;;;;;5079111;27;38560;-55
2022/05/05 08:10:17;;;;;;;;;;;12.60;93.40;;;;;;5078361;27;39400;-55
2022/05/05 08:12:45;;;;;;;;;;;12.70;92.40;;;;;;5078186;27;41333;-55
2022/05/05 08:15:13;;;;;;;;;;;12.80;92.60;;;;;;5080127;27;36356;-55
2022/05/05 08:17:40;;;;;;;;;;;12.90;93.00;;;;;;5078614;27;37694;-55
2022/05/05 08:20:08;;;;;;;;;;;13.00;92.50;;;;;;5080356;27;36304;-55
2022/05/05 08:22:37;;;;;;;;;;;13.00;92.50;;;;;;5081025;27;37591;-55
2022/05/05 08:30:33;;;;;;;;;;;13.30;91.40;;;;;;5079851;27;40048;-55
2022/05/05 08:33:00;;;;;;;;;;;13.40;91.40;;;;;;5080241;27;35834;-55
2022/05/05 08:35:28;;;;;;;;;;;13.50;91.40;;;;;;5078902;27;36412;-55
2022/05/05 08:37:57;;;;;;;;;;;13.50;91.00;;;;;;5079714;27;38268;-56
2022/05/05 08:40:28;;;;;;;;;;;13.60;91.10;;;;;;5075662;27;40487;-56
2022/05/05 08:42:56;;;;;;;;;;;13.60;90.70;;;;;;5078152;27;37008;-55
2022/05/05 08:45:23;;;;;;;;;;;13.70;89.10;;;;;;5080096;27;35097;-55
2022/05/05 08:47:53;;;;;;;;;;;13.80;86.20;;;;;;5078817;27;39262;-56
2022/05/05 08:50:21;;;;;;;;;;;13.80;88.80;;;;;;5077109;27;36656;-56
2022/05/05 08:52:49;;;;;;;;;;;13.80;87.90;;;;;;5080194;27;35961;-55
2022/05/05 08:55:21;;;;;;;;;;;13.90;88.80;;;;;;5078235;27;36171;-56
2022/05/05 08:57:48;;;;;;;;;;;14.00;88.10;;;;;;5079347;27;37988;-56
2022/05/05 09:00:16;;;;;;;;;;;14.20;87.60;;;;;;5079247;27;40040;-56
2022/05/05 09:02:44;;;;;;;;;;;14.20;87.00;;;;;;5079074;27;37183;-56
2022/05/05 09:05:12;;;;;;;;;;;14.30;85.70;;;;;;5080989;27;36326;-55
2022/05/05 09:07:46;;;;;;;;;;;14.40;86.90;;;;;;5080480;27;36528;-56
2022/05/05 09:10:13;;;;;;;;;;;14.50;86.30;;;;;;5076536;27;38046;-56
2022/05/05 09:12:42;;;;;;;;;;;14.60;85.60;;;;;;5079751;27;37241;-56
2022/05/05 09:15:09;;;;;;;;;;;14.70;83.90;;;;;;5077280;27;36917;-55
2022/05/05 09:17:37;;;;;;;;;;;14.80;86.90;;;;;;5078394;27;37734;-55
2022/05/05 09:20:05;;;;;;;;;;;15.00;86.40;;;;;;5077243;27;40112;-55
2022/05/05 09:22:33;;;;;;;;;;;15.10;87.50;;;;;;5079205;27;36720;-56
2022/05/05 09:25:02;;;;;;;;;;;15.30;85.90;;;;;;5077668;27;37037;-56
2022/05/05 09:27:33;;;;;;;;;;;15.40;86.70;;;;;;5078370;27;37379;-55
2022/05/05 09:30:03;;;;;;;;;;;15.50;86.70;;;;;;5079715;27;39013;-56
2022/05/05 09:32:31;;;;;;;;;;;15.60;87.00;;;;;;5079245;27;37333;-55
2022/05/05 09:34:59;;;;;;;;;;;15.80;83.90;;;;;;5079439;27;35006;-56
2022/05/05 09:37:26;;;;;;;;;;;15.80;82.90;;;;;;5081093;27;37219;-56
2022/05/05 09:39:57;;;;;;;;;;;15.90;83.10;;;;;;5078524;27;38135;-55
2022/05/05 09:42:35;;;;;;;;;;;15.90;82.40;;;;;;5078871;27;35917;-56
2022/05/05 09:45:23;;;;;;;;;;;16.00;84.50;;;;;;5079724;27;36928;-56
2022/05/05 09:47:53;;;;;;;;;;;16.00;81.10;;;;;;5075301;27;39765;-55
2022/05/05 09:50:21;;;;;;;;;;;16.00;78.20;;;;;;5079787;27;36721;-55
2022/05/05 09:58:22;;;;;;;;;;;16.00;82.00;;;;;;5080629;27;39281;-59
2022/05/05 10:00:58;;;;;;;;;;;16.00;82.60;;;;;;5079393;27;37494;-59
2022/05/05 10:06:22;;;;;;;;;;;16.10;81.10;;;;;;5079883;27;36895;-59
2022/05/05 10:08:51;;;;;;;;;;;16.10;75.40;;;;;;5078917;27;37435;-59
2022/05/05 10:11:19;;;;;;;;;;;16.00;77.60;;;;;;5078659;27;37864;-59
2022/05/05 10:13:47;;;;;;;;;;;16.00;79.50;;;;;;5079781;27;36220;-56
2022/05/05 10:16:15;;;;;;;;;;;16.10;81.40;;;;;;5079402;27;36901;-56
2022/05/05 10:18:44;;;;;;;;;;;16.20;81.00;;;;;;5077334;27;38587;-56
2022/05/05 10:21:15;;;;;;;;;;;16.30;80.90;;;;;;5078637;27;38298;-56
2022/05/05 10:23:46;;;;;;;;;;;16.40;78.30;;;;;;5077326;27;36737;-56
2022/05/05 10:26:14;;;;;;;;;;;16.50;79.60;;;;;;5073461;27;36067;-56
2022/05/05 10:28:42;;;;;;;;;;;16.60;81.00;;;;;;5077108;27;37678;-56
2022/05/05 10:31:12;;;;;;;;;;;16.70;81.10;;;;;;5076312;27;37816;-56
2022/05/05 10:34:00;;;;;;;;;;;16.70;79.10;;;;;;5077328;27;36706;-55
2022/05/05 10:36:28;;;;;;;;;;;16.70;79.40;;;;;;5078622;27;37430;-56
2022/05/05 10:38:55;;;;;;;;;;;16.70;80.30;;;;;;5078126;27;38019;-56
2022/05/05 10:41:35;;;;;;;;;;;16.70;77.60;;;;;;5077427;27;37705;-56
2022/05/05 10:44:21;;;;;;;;;;;16.60;78.40;;;;;;5079069;27;38351;-56
2022/05/05 10:46:58;;;;;;;;;;;16.70;77.90;;;;;;5079023;27;35114;-56
2022/05/05 10:49:49;;;;;;;;;;;16.70;77.70;;;;;;5079136;27;37762;-56
2022/05/05 10:52:29;;;;;;;;;;;16.70;77.10;;;;;;5079993;27;36669;-56
2022/05/05 10:54:57;;;;;;;;;;;16.80;78.70;;;;;;5076913;27;37941;-56
2022/05/05 10:57:39;;;;;;;;;;;16.90;77.10;;;;;;5078970;27;36563;-56
2022/05/05 11:00:06;;;;;;;;;;;16.90;77.60;;;;;;5080254;27;37905;-56
2022/05/05 11:02:34;;;;;;;;;;;16.90;76.60;;;;;;5076984;27;39598;-56
2022/05/05 11:05:16;;;;;;;;;;;17.00;80.60;;;;;;5076061;27;35851;-56
2022/05/05 11:07:46;;;;;;;;;;;17.10;79.90;;;;;;5078326;27;36643;-56
2022/05/05 11:10:28;;;;;;;;;;;17.20;79.80;;;;;;5075330;27;37950;-56
2022/05/05 11:12:55;;;;;;;;;;;17.30;80.70;;;;;;5075279;27;37879;-56
2022/05/05 11:23:46;;;;;;;;;;;17.40;79.20;;;;;;5083143;27;40074;-56
2022/05/05 11:26:19;;;;;;;;;;;17.40;78.40;;;;;;5081788;27;38246;-56
2022/05/05 11:28:47;;;;;;;;;;;17.50;80.00;;;;;;5078981;27;36992;-56
2022/05/05 11:31:19;;;;;;;;;;;17.60;78.80;;;;;;5080586;27;36191;-56
2022/05/05 11:33:49;;;;;;;;;;;17.60;78.90;;;;;;5080398;27;39443;-56
2022/05/05 11:36:16;;;;;;;;;;;17.70;76.60;;;;;;5080890;27;38001;-56
2022/05/05 11:38:48;;;;;;;;;;;17.70;78.80;;;;;;5080617;27;36523;-56
2022/05/05 11:41:18;;;;;;;;;;;17.70;77.20;;;;;;5080237;27;37587;-56
2022/05/05 11:46:31;;;;;;;;;;;17.80;76.00;;;;;;5080257;27;38235;-56
2022/05/05 11:48:58;;;;;;;;;;;17.90;79.10;;;;;;5080659;27;35193;-55
2022/05/05 11:51:26;;;;;;;;;;;18.00;78.30;;;;;;5081302;27;38078;-56
2022/05/05 11:54:02;;;;;;;;;;;18.00;77.90;;;;;;5080878;27;38753;-56
2022/05/05 11:56:29;;;;;;;;;;;18.10;77.40;;;;;;5082347;27;37521;-56
2022/05/05 12:01:41;;;;;;;;;;;18.30;77.00;;;;;;5081318;27;39624;-56
2022/05/05 12:04:09;;;;;;;;;;;18.40;78.30;;;;;;5082021;27;39398;-56
2022/05/05 12:06:37;;;;;;;;;;;18.40;73.30;;;;;;5081092;27;37219;-56
2022/05/05 12:09:06;;;;;;;;;;;18.40;73.80;;;;;;5080279;27;35000;-56
2022/05/05 12:11:33;;;;;;;;;;;18.30;75.50;;;;;;5079397;27;38795;-56
2022/05/05 12:14:03;;;;;;;;;;;18.30;74.40;;;;;;5079956;27;37566;-55
2022/05/05 12:16:31;;;;;;;;;;;18.40;76.30;;;;;;5079568;27;37349;-55
2022/05/05 12:18:59;;;;;;;;;;;18.40;76.80;;;;;;5079937;27;37075;-55
2022/05/05 12:21:26;;;;;;;;;;;18.40;74.60;;;;;;5079560;27;37265;-55
2022/05/05 12:23:57;;;;;;;;;;;18.30;72.70;;;;;;5080345;27;39006;-55
2022/05/05 12:26:29;;;;;;;;;;;18.40;74.00;;;;;;5077195;27;37403;-55
2022/05/05 12:28:57;;;;;;;;;;;18.30;73.70;;;;;;5079590;27;36553;-55
2022/05/05 12:31:25;;;;;;;;;;;18.30;74.70;;;;;;5079929;27;37791;-55
2022/05/05 12:33:52;;;;;;;;;;;18.40;75.70;;;;;;5079747;27;36699;-55
2022/05/05 12:36:19;;;;;;;;;;;18.30;75.60;;;;;;5080226;27;37695;-55
2022/05/05 12:38:47;;;;;;;;;;;18.30;73.90;;;;;;5081035;27;38268;-55
2022/05/05 12:41:14;;;;;;;;;;;18.20;71.20;;;;;;5080334;27;39127;-55
2022/05/05 12:43:45;;;;;;;;;;;18.20;73.20;;;;;;5080160;27;37927;-55
2022/05/05 12:46:15;;;;;;;;;;;18.10;73.40;;;;;;5079601;27;37372;-55
2022/05/05 12:48:42;;;;;;;;;;;18.00;75.70;;;;;;5079952;27;38046;-55
2022/05/05 12:51:16;;;;;;;;;;;18.00;74.10;;;;;;5077820;27;39121;-56
2022/05/05 13:01:57;;;;;;;;;;;18.00;75.40;;;;;;5079028;27;39129;-55
2022/05/05 13:04:24;;;;;;;;;;;18.00;75.50;;;;;;5076915;27;38925;-55
2022/05/05 13:06:52;;;;;;;;;;;18.10;77.00;;;;;;5078925;27;37943;-55
2022/05/05 13:09:20;;;;;;;;;;;18.10;74.60;;;;;;5077960;27;35053;-55
2022/05/05 13:11:51;;;;;;;;;;;18.10;74.80;;;;;;5079180;27;38060;-56
2022/05/05 13:14:20;;;;;;;;;;;18.10;76.20;;;;;;5078589;27;38781;-55
2022/05/05 13:16:48;;;;;;;;;;;18.20;77.10;;;;;;5079492;27;36955;-56
2022/05/05 13:19:15;;;;;;;;;;;18.20;76.60;;;;;;5079353;27;37366;-56
2022/05/05 13:21:42;;;;;;;;;;;18.10;74.40;;;;;;5075221;27;37689;-56
2022/05/05 13:24:10;;;;;;;;;;;18.20;73.70;;;;;;5077987;27;37245;-55
2022/05/05 13:26:41;;;;;;;;;;;18.10;74.80;;;;;;5078396;27;37583;-55
2022/05/05 13:29:11;;;;;;;;;;;18.10;76.60;;;;;;5079071;27;36279;-55
2022/05/05 13:31:40;;;;;;;;;;;18.10;76.40;;;;;;5079147;27;37786;-55
2022/05/05 13:34:08;;;;;;;;;;;18.10;77.70;;;;;;5078733;27;39413;-55
2022/05/05 13:36:35;;;;;;;;;;;18.10;75.80;;;;;;5078946;27;37210;-56
2022/05/05 13:39:04;;;;;;;;;;;18.00;76.60;;;;;;5079843;27;36270;-56
2022/05/05 13:41:31;;;;;;;;;;;18.00;75.80;;;;;;5077325;27;39506;-55
2022/05/05 13:43:58;;;;;;;;;;;18.00;76.00;;;;;;5078551;27;37647;-56
2022/05/05 13:46:25;;;;;;;;;;;18.00;76.50;;;;;;5078452;27;37379;-56
2022/05/05 13:48:54;;;;;;;;;;;18.00;76.20;;;;;;5079637;27;36190;-56
2022/05/05 13:51:21;;;;;;;;;;;18.00;75.30;;;;;;5077209;27;37531;-55
2022/05/05 13:53:48;;;;;;;;;;;17.90;75.70;;;;;;5077830;27;38194;-56
2022/05/05 13:56:15;;;;;;;;;;;18.00;77.90;;;;;;5079362;27;36862;-55
2022/05/05 13:58:42;;;;;;;;;;;18.00;75.00;;;;;;5079266;27;36805;-55
2022/05/05 14:01:10;;;;;;;;;;;17.90;75.60;;;;;;5074636;27;38235;-55
2022/05/05 14:03:37;;;;;;;;;;;17.90;75.50;;;;;;5077372;27;40465;-55
2022/05/05 14:06:05;;;;;;;;;;;17.90;76.70;;;;;;5076986;27;36672;-55
2022/05/05 14:14:02;;;;;;;;;;;17.90;76.10;;;;;;5077107;27;39880;-55
2022/05/05 14:16:29;;;;;;;;;;;17.90;76.00;;;;;;5078765;27;40016;-55
2022/05/05 14:18:56;;;;;;;;;;;17.90;76.40;;;;;;5077852;27;36718;-56
2022/05/05 14:21:25;;;;;;;;;;;17.90;77.20;;;;;;5076576;27;37668;-55
2022/05/05 14:23:52;;;;;;;;;;;17.90;75.20;;;;;;5079104;27;36830;-55
2022/05/05 14:26:19;;;;;;;;;;;17.90;76.60;;;;;;5075615;27;37094;-56
2022/05/05 14:28:49;;;;;;;;;;;17.90;76.20;;;;;;5076730;27;37096;-55
2022/05/05 14:31:16;;;;;;;;;;;17.90;76.20;;;;;;5073536;27;37377;-55
2022/05/05 14:33:43;;;;;;;;;;;17.90;77.00;;;;;;5076326;27;36712;-56
2022/05/05 14:36:10;;;;;;;;;;;17.90;77.30;;;;;;5077726;27;38102;-55
2022/05/05 14:38:39;;;;;;;;;;;17.90;76.90;;;;;;5076819;27;36139;-56
2022/05/05 14:41:06;;;;;;;;;;;17.90;76.50;;;;;;5077087;27;36565;-55
2022/05/05 14:43:33;;;;;;;;;;;18.00;76.00;;;;;;5077142;27;38167;-55
2022/05/05 14:46:00;;;;;;;;;;;18.00;76.90;;;;;;5077626;27;37213;-55
2022/05/05 14:48:28;;;;;;;;;;;17.90;78.00;;;;;;5077444;27;36781;-59
2022/05/05 14:50:55;;;;;;;;;;;17.90;78.10;;;;;;5081510;27;38818;-59
2022/05/05 14:53:23;;;;;;;;;;;17.90;77.80;;;;;;5083865;27;36663;-59
2022/05/05 14:55:52;;;;;;;;;;;17.80;79.40;;;;;;5079458;27;37469;-59
2022/05/05 14:58:19;;;;;;;;;;;17.80;78.10;;;;;;5082315;27;36606;-59
2022/05/05 15:00:46;;;;;;;;;;;17.80;77.40;;;;;;5082609;27;37575;-59
2022/05/05 15:03:13;;;;;;;;;;;17.70;77.10;;;;;;5078916;27;36784;-59
2022/05/05 15:05:40;;;;;;;;;;;17.70;78.40;;;;;;5075398;27;39175;-59
2022/05/05 15:08:08;;;;;;;;;;;17.70;78.80;;;;;;5073900;27;36837;-59
2022/05/05 15:10:35;;;;;;;;;;;17.70;79.50;;;;;;5073181;27;37622;-59
2022/05/05 15:13:03;;;;;;;;;;;17.70;79.00;;;;;;5076938;27;38143;-59
2022/05/05 15:15:31;;;;;;;;;;;17.70;78.60;;;;;;5077758;27;38043;-60
2022/05/05 15:17:58;;;;;;;;;;;17.80;78.40;;;;;;5077857;27;38007;-59
2022/05/05 15:20:25;;;;;;;;;;;17.80;77.80;;;;;;5076082;27;38513;-59
2022/05/05 15:22:52;;;;;;;;;;;17.70;77.60;;;;;;5077869;27;36985;-59
2022/05/05 15:25:20;;;;;;;;;;;17.60;78.90;;;;;;5077048;27;38543;-59